createdAt,value
2023-06-10T00:01:53.607Z,17.30
2023-06-10T00:04:30.546Z,17.20
2023-06-10T00:07:13.655Z,17.10
2023-06-10T00:09:45.629Z,17.10
2023-06-10T00:12:14.636Z,17.00
2023-06-10T00:14:43.214Z,17.00
2023-06-10T00:17:15.840Z,16.90
2023-06-10T00:19:48.438Z,16.80
2023-06-10T00:22:26.158Z,16.80
2023-06-10T00:25:11.059Z,16.80
2023-06-10T00:27:41.447Z,16.70
2023-06-10T00:30:13.019Z,16.70
2023-06-10T00:32:41.609Z,16.70
2023-06-10T00:35:21.295Z,16.60
2023-06-10T00:37:53.748Z,16.60
2023-06-10T00:40:24.100Z,16.50
2023-06-10T00:42:54.653Z,16.50
2023-06-10T00:45:26.526Z,16.40
2023-06-10T00:47:55.565Z,16.40
2023-06-10T00:50:27.600Z,16.40
2023-06-10T00:53:00.649Z,16.30
2023-06-10T00:55:30.196Z,16.30
2023-06-10T00:57:58.672Z,16.20
2023-06-10T01:00:29.043Z,16.20
2023-06-10T01:02:58.367Z,16.10
2023-06-10T01:05:30.875Z,16.10
2023-06-10T01:08:04.156Z,16.00
2023-06-10T01:10:38.164Z,16.00
2023-06-10T01:13:15.827Z,16.00
2023-06-10T01:15:45.059Z,16.00
2023-06-10T01:18:16.427Z,16.00
2023-06-10T01:20:51.321Z,16.00
2023-06-10T01:23:34.294Z,16.00
2023-06-10T01:26:08.826Z,16.00
2023-06-10T01:28:57.455Z,16.00
2023-06-10T01:31:40.374Z,16.00
2023-06-10T01:34:13.858Z,16.00
2023-06-10T01:36:44.176Z,16.00
2023-06-10T01:39:17.682Z,16.00
2023-06-10T01:41:49.466Z,16.00
2023-06-10T01:44:22.214Z,15.90
2023-06-10T01:46:50.909Z,15.90
2023-06-10T01:49:23.284Z,15.90
2023-06-10T01:51:52.364Z,15.90
2023-06-10T01:54:23.172Z,15.90
2023-06-10T01:56:52.782Z,15.80
2023-06-10T01:59:22.746Z,15.80
2023-06-10T02:01:51.462Z,15.90
2023-06-10T02:04:22.471Z,15.90
2023-06-10T02:07:00.499Z,15.90
2023-06-10T02:09:36.418Z,15.90
2023-06-10T02:12:09.467Z,15.90
2023-06-10T02:14:38.327Z,15.80
2023-06-10T02:17:15.914Z,15.80
2023-06-10T02:19:53.729Z,15.80
2023-06-10T02:22:28.641Z,15.80
2023-06-10T02:25:02.968Z,15.70
2023-06-10T02:27:33.959Z,15.70
2023-06-10T02:30:04.020Z,15.60
2023-06-10T02:32:39.176Z,15.60
2023-06-10T02:35:11.451Z,15.60
2023-06-10T02:37:42.002Z,15.60
2023-06-10T02:40:14.837Z,15.60
2023-06-10T02:42:46.098Z,15.50
2023-06-10T02:45:17.727Z,15.50
2023-06-10T02:47:47.133Z,15.50
2023-06-10T02:50:23.993Z,15.50
2023-06-10T02:53:07.656Z,15.50
2023-06-10T02:55:42.620Z,15.50
2023-06-10T02:58:15.243Z,15.50
2023-06-10T03:00:46.827Z,15.40
2023-06-10T03:03:17.521Z,15.40
2023-06-10T03:06:03.925Z,15.30
2023-06-10T03:08:41.360Z,15.20
2023-06-10T03:11:19.249Z,15.10
2023-06-10T03:13:50.473Z,15.00
2023-06-10T03:16:22.013Z,15.00
2023-06-10T03:18:54.109Z,14.90
2023-06-10T03:21:28.236Z,14.90
2023-06-10T03:23:59.364Z,14.90
2023-06-10T03:26:29.775Z,14.80
2023-06-10T03:28:59.330Z,14.90
2023-06-10T03:31:30.773Z,14.90
2023-06-10T03:34:00.651Z,14.90
2023-06-10T03:36:31.306Z,14.90
2023-06-10T03:39:00.094Z,15.00
2023-06-10T03:41:31.503Z,15.00
2023-06-10T03:44:01.767Z,15.10
2023-06-10T03:46:33.414Z,15.10
2023-06-10T03:49:03.554Z,15.10
2023-06-10T03:51:33.294Z,15.20
2023-06-10T03:54:01.690Z,15.30
2023-06-10T03:56:33.979Z,15.40
2023-06-10T03:59:06.319Z,15.40
2023-06-10T04:01:41.939Z,15.50
2023-06-10T04:04:11.971Z,15.60
2023-06-10T04:06:45.120Z,15.80
2023-06-10T04:09:14.480Z,16.00
2023-06-10T04:11:44.971Z,16.30
2023-06-10T04:14:14.865Z,16.70
2023-06-10T04:16:44.906Z,17.00
2023-06-10T04:19:16.648Z,17.30
2023-06-10T04:21:46.257Z,17.70
2023-06-10T04:24:15.029Z,18.10
2023-06-10T04:26:47.570Z,18.40
2023-06-10T04:29:18.472Z,18.80
2023-06-10T04:31:48.751Z,19.00
2023-06-10T04:34:18.954Z,19.30
2023-06-10T04:36:51.001Z,19.50
2023-06-10T04:39:21.221Z,20.00
2023-06-10T04:41:54.145Z,20.50
2023-06-10T04:44:26.771Z,21.00
2023-06-10T04:46:57.325Z,21.40
2023-06-10T04:49:26.253Z,21.80
2023-06-10T04:51:56.235Z,22.10
2023-06-10T04:54:25.840Z,22.20
2023-06-10T04:57:00.547Z,22.50
2023-06-10T04:59:31.090Z,23.00
2023-06-10T05:02:01.778Z,23.20
2023-06-10T05:04:33.534Z,23.60
2023-06-10T05:07:03.356Z,24.00
2023-06-10T05:09:34.566Z,24.40
2023-06-10T05:12:11.599Z,24.90
2023-06-10T05:14:40.603Z,25.30
2023-06-10T05:17:13.842Z,25.30
2023-06-10T05:19:42.919Z,25.30
2023-06-10T05:22:12.087Z,25.20
2023-06-10T05:24:43.139Z,25.40
2023-06-10T05:27:14.272Z,25.50
2023-06-10T05:29:43.013Z,25.70
2023-06-10T05:32:12.651Z,26.10
2023-06-10T05:34:41.618Z,26.20
2023-06-10T05:37:10.593Z,26.40
2023-06-10T05:39:40.502Z,26.80
2023-06-10T05:42:10.508Z,27.10
2023-06-10T05:44:41.550Z,27.50
2023-06-10T05:47:11.740Z,27.60
2023-06-10T05:49:41.945Z,28.10
2023-06-10T05:52:11.033Z,28.30
2023-06-10T05:54:42.944Z,28.60
2023-06-10T05:57:13.198Z,28.90
2023-06-10T05:59:43.977Z,29.20
2023-06-10T06:02:16.690Z,29.60
2023-06-10T06:04:49.492Z,30.00
2023-06-10T06:07:18.306Z,30.20
2023-06-10T06:09:46.930Z,30.00
2023-06-10T06:12:16.521Z,30.20
2023-06-10T06:14:48.122Z,30.20
2023-06-10T06:17:16.275Z,30.40
2023-06-10T06:19:44.643Z,30.70
2023-06-10T06:22:13.466Z,30.80
2023-06-10T06:24:45.599Z,30.80
2023-06-10T06:27:16.394Z,30.60
2023-06-10T06:29:47.750Z,31.20
2023-06-10T06:32:18.398Z,31.40
2023-06-10T06:34:47.416Z,31.00
2023-06-10T06:37:17.945Z,31.10
2023-06-10T06:39:50.403Z,31.40
2023-06-10T06:42:18.920Z,32.20
2023-06-10T06:45:15.460Z,32.40
2023-06-10T06:47:44.573Z,33.00
2023-06-10T06:50:13.541Z,33.50
2023-06-10T06:52:43.589Z,34.20
2023-06-10T06:55:12.081Z,33.90
2023-06-10T06:57:40.684Z,34.00
2023-06-10T07:00:10.518Z,34.20
2023-06-10T07:02:41.685Z,34.60
2023-06-10T07:05:11.101Z,35.10
2023-06-10T07:07:40.564Z,35.10
2023-06-10T07:10:11.037Z,35.30
2023-06-10T07:12:39.724Z,35.60
2023-06-10T07:15:11.447Z,35.50
2023-06-10T07:17:44.442Z,35.50
2023-06-10T07:20:16.259Z,35.90
2023-06-10T07:22:46.895Z,35.90
2023-06-10T07:25:17.403Z,36.40
2023-06-10T07:27:47.093Z,37.00
2023-06-10T07:30:16.842Z,36.80
2023-06-10T07:32:47.390Z,36.90
2023-06-10T07:35:17.250Z,37.00
2023-06-10T07:37:48.291Z,36.70
2023-06-10T07:40:17.188Z,36.60
2023-06-10T07:42:47.900Z,36.80
2023-06-10T07:45:17.568Z,37.10
2023-06-10T07:47:50.776Z,37.40
2023-06-10T07:50:19.333Z,37.80
2023-06-10T07:52:47.799Z,37.80
2023-06-10T07:55:16.657Z,38.10
2023-06-10T07:57:48.368Z,38.40
2023-06-10T08:00:20.218Z,38.80
2023-06-10T08:02:50.545Z,38.90
2023-06-10T08:05:21.712Z,39.30
2023-06-10T08:07:52.641Z,38.50
2023-06-10T08:10:21.231Z,38.70
2023-06-10T08:12:51.948Z,39.50
2023-06-10T08:15:21.607Z,40.00
2023-06-10T08:17:51.562Z,40.10
2023-06-10T08:20:20.251Z,39.90
2023-06-10T08:22:48.609Z,40.00
2023-06-10T08:25:17.133Z,40.60
2023-06-10T08:27:45.490Z,41.00
2023-06-10T08:30:16.323Z,41.20
2023-06-10T08:32:45.745Z,40.70
2023-06-10T08:35:16.471Z,41.30
2023-06-10T08:37:45.018Z,41.60
2023-06-10T08:40:14.953Z,41.80
2023-06-10T08:42:47.993Z,42.20
2023-06-10T08:45:21.566Z,42.30
2023-06-10T08:47:53.200Z,42.80
2023-06-10T08:50:25.363Z,43.10
2023-06-10T08:53:00.718Z,42.60
2023-06-10T08:55:34.445Z,42.70
2023-06-10T08:58:06.013Z,42.10
2023-06-10T09:00:34.770Z,41.60
2023-06-10T09:03:05.497Z,41.70
2023-06-10T09:05:38.350Z,41.90
2023-06-10T09:08:10.369Z,42.30
2023-06-10T09:10:39.080Z,42.30
2023-06-10T09:13:08.582Z,42.00
2023-06-10T09:15:43.186Z,41.30
2023-06-10T09:18:12.570Z,40.40
2023-06-10T09:20:45.964Z,40.00
2023-06-10T09:23:18.153Z,40.40
2023-06-10T09:25:46.980Z,40.40
2023-06-10T09:28:16.982Z,40.30
2023-06-10T09:30:47.174Z,40.10
2023-06-10T09:33:17.310Z,40.00
2023-06-10T09:35:51.807Z,40.20
2023-06-10T09:38:23.321Z,39.70
2023-06-10T09:40:53.391Z,39.90
2023-06-10T09:43:22.609Z,39.50
2023-06-10T09:45:54.200Z,40.10
2023-06-10T09:48:25.403Z,39.90
2023-06-10T09:50:57.581Z,39.70
2023-06-10T09:53:26.744Z,39.70
2023-06-10T09:55:56.209Z,40.10
2023-06-10T09:58:37.432Z,40.10
2023-06-10T10:01:10.664Z,40.50
2023-06-10T10:03:47.783Z,41.80
2023-06-10T10:06:22.010Z,43.00
2023-06-10T10:08:52.214Z,43.70
2023-06-10T10:11:23.222Z,44.50
2023-06-10T10:13:53.771Z,45.40
2023-06-10T10:16:25.707Z,44.90
2023-06-10T10:18:58.808Z,44.90
2023-06-10T10:21:32.677Z,45.20
2023-06-10T10:24:06.280Z,45.30
2023-06-10T10:26:34.471Z,44.20
2023-06-10T10:29:13.215Z,43.60
2023-06-10T10:31:45.847Z,42.90
2023-06-10T10:34:19.087Z,42.60
2023-06-10T10:36:50.748Z,42.50
2023-06-10T10:39:21.151Z,43.60
2023-06-10T10:41:51.056Z,44.80
2023-06-10T10:44:20.665Z,44.70
2023-06-10T10:46:53.718Z,44.00
2023-06-10T10:49:24.876Z,44.00
2023-06-10T10:52:02.307Z,43.20
2023-06-10T10:54:33.013Z,42.80
2023-06-10T10:57:22.484Z,42.90
2023-06-10T11:00:01.465Z,44.00
2023-06-10T11:02:44.730Z,44.60
2023-06-10T11:05:16.735Z,43.80
2023-06-10T11:07:57.631Z,43.60
2023-06-10T11:10:33.897Z,42.70
2023-06-10T11:13:03.441Z,40.80
2023-06-10T11:15:33.010Z,39.80
2023-06-10T11:18:17.816Z,40.50
2023-06-10T11:21:00.591Z,41.70
2023-06-10T11:23:45.410Z,42.90
2023-06-10T11:26:37.022Z,43.80
2023-06-10T11:29:10.943Z,42.00
2023-06-10T11:31:52.712Z,40.90
2023-06-10T11:34:28.201Z,41.80
2023-06-10T11:36:58.231Z,42.00
2023-06-10T11:39:31.010Z,41.40
2023-06-10T11:42:01.536Z,40.90
2023-06-10T11:44:34.144Z,40.80
2023-06-10T11:47:02.649Z,41.10
2023-06-10T11:49:31.646Z,41.70
2023-06-10T11:52:06.976Z,41.70
2023-06-10T11:54:40.147Z,40.50
2023-06-10T11:57:09.672Z,40.00
2023-06-10T11:59:38.332Z,40.10
2023-06-10T12:02:07.392Z,40.50
2023-06-10T12:04:36.322Z,41.10
2023-06-10T12:07:05.276Z,41.80
2023-06-10T12:09:35.124Z,42.50
2023-06-10T12:12:09.877Z,43.00
2023-06-10T12:15:12.440Z,43.80
2023-06-10T12:17:43.395Z,43.60
2023-06-10T12:20:31.810Z,42.40
2023-06-10T12:23:02.818Z,41.70
2023-06-10T12:25:32.871Z,41.10
2023-06-10T12:28:04.466Z,40.80
2023-06-10T12:30:35.303Z,41.20
2023-06-10T12:33:04.165Z,41.20
2023-06-10T12:35:35.140Z,41.10
2023-06-10T12:38:08.376Z,40.40
2023-06-10T12:40:41.772Z,40.10
2023-06-10T12:43:20.950Z,39.50
2023-06-10T12:45:49.460Z,39.50
2023-06-10T12:48:21.990Z,39.30
2023-06-10T12:50:54.688Z,39.30
2023-06-10T12:53:29.047Z,38.90
2023-06-10T12:55:59.752Z,38.10
2023-06-10T12:58:30.663Z,38.00
2023-06-10T13:01:00.947Z,37.80
2023-06-10T13:03:29.908Z,37.70
2023-06-10T13:05:59.078Z,37.90
2023-06-10T13:08:27.974Z,37.50
2023-06-10T13:10:56.243Z,37.40
2023-06-10T13:13:26.977Z,37.50
2023-06-10T13:15:57.705Z,37.60
2023-06-10T13:18:27.806Z,37.90
2023-06-10T13:20:57.830Z,37.70
2023-06-10T13:23:26.234Z,37.70
2023-06-10T13:25:54.560Z,37.80
2023-06-10T13:28:23.337Z,38.00
2023-06-10T13:30:52.498Z,38.00
2023-06-10T13:33:25.225Z,37.60
2023-06-10T13:35:54.054Z,37.40
2023-06-10T13:38:22.338Z,37.40
2023-06-10T13:40:52.672Z,38.30
2023-06-10T13:43:24.578Z,38.80
2023-06-10T13:45:54.523Z,38.30
2023-06-10T13:48:26.740Z,37.90
2023-06-10T13:50:57.212Z,38.10
2023-06-10T13:53:26.026Z,38.00
2023-06-10T13:56:00.276Z,38.60
2023-06-10T13:58:31.657Z,39.40
2023-06-10T14:01:01.576Z,39.80
2023-06-10T14:03:34.842Z,39.50
2023-06-10T14:06:05.685Z,39.50
2023-06-10T14:08:34.789Z,39.30
2023-06-10T14:11:06.063Z,38.80
2023-06-10T14:13:35.540Z,38.50
2023-06-10T14:16:05.094Z,39.00
2023-06-10T14:18:35.476Z,39.90
2023-06-10T14:21:03.862Z,40.60
2023-06-10T14:23:33.438Z,41.30
2023-06-10T14:26:02.209Z,41.60
2023-06-10T14:28:30.768Z,41.90
2023-06-10T14:30:59.176Z,42.10
2023-06-10T14:33:27.774Z,42.60
2023-06-10T14:35:57.401Z,42.90
2023-06-10T14:38:26.560Z,43.20
2023-06-10T14:40:57.338Z,42.90
2023-06-10T14:43:26.178Z,42.70
2023-06-10T14:45:56.527Z,43.60
2023-06-10T14:48:25.636Z,44.70
2023-06-10T14:50:56.743Z,45.00
2023-06-10T14:53:26.778Z,43.20
2023-06-10T14:55:57.751Z,41.40
2023-06-10T14:58:26.151Z,40.30
2023-06-10T15:00:54.686Z,39.10
2023-06-10T15:03:23.214Z,38.00
2023-06-10T15:05:52.209Z,37.20
2023-06-10T15:08:20.933Z,36.80
2023-06-10T15:10:51.575Z,36.40
2023-06-10T15:13:20.034Z,36.20
2023-06-10T15:15:48.364Z,36.00
2023-06-10T15:18:17.303Z,35.30
2023-06-10T15:20:47.265Z,35.00
2023-06-10T15:23:15.997Z,34.80
2023-06-10T15:25:44.671Z,34.60
2023-06-10T15:28:14.370Z,34.60
2023-06-10T15:30:43.014Z,34.50
2023-06-10T15:33:12.241Z,34.20
2023-06-10T15:35:40.628Z,34.40
2023-06-10T15:38:09.426Z,35.00
2023-06-10T15:40:39.325Z,35.70
2023-06-10T15:43:07.618Z,36.10
2023-06-10T15:45:37.999Z,36.40
2023-06-10T15:48:07.898Z,36.20
2023-06-10T15:50:38.617Z,36.40
2023-06-10T15:53:07.207Z,36.30
2023-06-10T15:55:36.990Z,36.10
2023-06-10T15:58:05.572Z,36.00
2023-06-10T16:00:34.190Z,36.50
2023-06-10T16:03:04.442Z,36.40
2023-06-10T16:05:34.870Z,36.60
2023-06-10T16:08:03.603Z,36.80
2023-06-10T16:10:32.146Z,37.50
2023-06-10T16:13:01.942Z,38.10
2023-06-10T16:15:30.859Z,38.30
2023-06-10T16:17:59.644Z,38.30
2023-06-10T16:20:29.372Z,38.00
2023-06-10T16:23:02.124Z,38.20
2023-06-10T16:25:30.880Z,38.50
2023-06-10T16:28:00.174Z,38.60
2023-06-10T16:30:29.302Z,38.40
2023-06-10T16:32:58.664Z,38.10
2023-06-10T16:35:31.433Z,37.90
2023-06-10T16:38:03.357Z,37.50
2023-06-10T16:40:35.415Z,37.50
2023-06-10T16:43:06.469Z,36.90
2023-06-10T16:45:34.988Z,36.00
2023-06-10T16:48:07.963Z,35.20
2023-06-10T16:50:38.188Z,34.40
2023-06-10T16:53:08.286Z,33.70
2023-06-10T16:55:40.145Z,33.00
2023-06-10T16:58:10.897Z,32.50
2023-06-10T17:00:40.457Z,32.10
2023-06-10T17:03:11.871Z,31.80
2023-06-10T17:05:45.355Z,31.60
2023-06-10T17:22:47.723Z,31.10
2023-06-10T17:25:30.114Z,31.20
2023-06-10T17:27:59.920Z,30.70
2023-06-10T17:30:31.441Z,30.10
2023-06-10T17:33:02.873Z,29.70
2023-06-10T17:35:31.574Z,29.20
2023-06-10T17:38:03.266Z,29.00
2023-06-10T17:40:35.444Z,28.80
2023-06-10T17:43:04.025Z,28.70
2023-06-10T17:45:35.483Z,28.70
2023-06-10T17:48:04.735Z,28.60
2023-06-10T17:50:35.503Z,28.50
2023-06-10T17:53:08.346Z,28.30
2023-06-10T17:55:40.877Z,28.20
2023-06-10T17:58:11.298Z,27.90
2023-06-10T18:00:40.204Z,27.60
2023-06-10T18:03:09.561Z,27.40
2023-06-10T18:05:39.161Z,27.10
2023-06-10T18:08:09.512Z,26.90
2023-06-10T18:10:38.066Z,26.70
2023-06-10T18:13:10.524Z,26.60
2023-06-10T18:15:42.431Z,26.50
2023-06-10T18:18:11.442Z,26.40
2023-06-10T18:20:41.332Z,26.30
2023-06-10T18:23:14.746Z,26.30
2023-06-10T18:25:47.733Z,26.20
2023-06-10T18:28:17.854Z,26.20
2023-06-10T18:30:49.706Z,26.10
2023-06-10T18:33:19.537Z,26.10
2023-06-10T18:35:48.287Z,26.10
2023-06-10T18:38:20.545Z,26.00
2023-06-10T22:41:27.487Z,22.00
2023-06-10T22:43:57.661Z,21.90
2023-06-10T22:46:26.996Z,21.90
2023-06-10T22:48:56.212Z,21.80
2023-06-10T22:51:26.009Z,21.80
2023-06-10T23:43:58.156Z,20.80
2023-06-10T23:46:29.640Z,20.70
2023-06-10T23:49:04.087Z,20.60
2023-06-10T23:51:40.194Z,20.50
2023-06-10T23:54:10.536Z,20.50
2023-06-10T23:56:44.178Z,20.40
2023-06-10T23:59:15.748Z,20.30
